WetterOnline ( http://www.wetteronline.de )

Wetter aktuell Frankenberg

Aktuelles Wetter: Kahler Asten (841m)

6-stündlich | Neueste Meldungen
Ortszeit Temperatur Wetter
Do, 21.06. 14:00 13.0° C leicht bewölkt
Do, 21.06. 8:00 13.6° C bewölkt
Do, 21.06. 2:00 16.1° C leicht bewölkt
Mi, 20.06. 20:00 21.0° C wolkenlos
Mi, 20.06. 14:00 20.1° C fast wolkenlos
Mi, 20.06. 8:00 13.4° C bedeckt
Mi, 20.06. 2:00 12.8° C wolkenlos
Di, 19.06. 20:00 14.9° C bewölkt
Ortszeit Temperatur Wetter
Do, 21.06. 19:30 9.5° C wolkig
Do, 21.06. 19:20 9.5° C wolkig
Do, 21.06. 19:10 9.4° C wolkig
Do, 21.06. 19:00 10.3° C leicht bewölkt
Do, 21.06. 18:50 10.3° C wolkig
Do, 21.06. 18:40 9.8° C leicht bewölkt
Do, 21.06. 18:30 10.0° C leicht bewölkt
Do, 21.06. 18:00 10.6° C bewölkt
Do, 21.06. 17:30 11.7° C wolkig
Do, 21.06. 17:00 11.6° C wolkig
Do, 21.06. 16:30 12.1° C bewölkt
Ortszeit Relative Feuchte Sichtweite
Do, 21.06. 14:00 62% 21 km
Do, 21.06. 8:00 91% 12 km
Do, 21.06. 2:00 74% 65 km
Mi, 20.06. 20:00 54% 30 km
Mi, 20.06. 14:00 62% 30 km
Mi, 20.06. 8:00 96% 5.0 km
Mi, 20.06. 2:00 96% 8 km
Di, 19.06. 20:00 90% 17 km
Ortszeit Relative Feuchte Sichtweite
Do, 21.06. 19:30 60% 60 km
Do, 21.06. 19:20 60% -
Do, 21.06. 19:10 60% -
Do, 21.06. 19:00 56% 45 km
Do, 21.06. 18:50 56% -
Do, 21.06. 18:40 56% -
Do, 21.06. 18:30 54% 50 km
Do, 21.06. 18:00 54% 50 km
Do, 21.06. 17:30 49% 17 km
Do, 21.06. 17:00 52% 40 km
Do, 21.06. 16:30 56% 35 km
Ortszeit Niederschlagsmenge Niederschlagsart
Do, 21.06. 14:00 2 l/m2 in 6 Std. Regen
Do, 21.06. 8:00 0.0 l/m2 in 12 Std. -
Do, 21.06. 2:00 0.0 l/m2 in 6 Std. -
Mi, 20.06. 20:00 0.0 l/m2 in 12 Std. -
Mi, 20.06. 14:00 0.0 l/m2 in 6 Std. -
Mi, 20.06. 8:00 0.0 l/m2 in 12 Std. -
Mi, 20.06. 2:00 0.0 l/m2 in 6 Std. -
Di, 19.06. 20:00 0.1 l/m2 in 12 Std. Regen
Ortszeit Niederschlagsmenge Niederschlagsart
Do, 21.06. 19:30 0.0 l/m2 in 1 Std. -
Do, 21.06. 19:20 keine Meldung -
Do, 21.06. 19:10 keine Meldung -
Do, 21.06. 19:00 0.0 l/m2 in 1 Std. -
Do, 21.06. 18:50 keine Meldung -
Do, 21.06. 18:40 keine Meldung -
Do, 21.06. 18:30 0.0 l/m2 in 1 Std. -
Do, 21.06. 18:00 0.0 l/m2 in 1 Std. -
Do, 21.06. 17:30 0.0 l/m2 in 1 Std. -
Do, 21.06. 17:00 0.0 l/m2 in 1 Std. -
Do, 21.06. 16:30 0.0 l/m2 in 1 Std. -
Ortszeit Stärke Spitze Richtung
km/h Bft. km/h Grad Sektor
Do, 21.06. 14:00 37 5 65 290° W
Do, 21.06. 8:00 22 4 40 230° SW
Do, 21.06. 2:00 15 3 26 270° W
Mi, 20.06. 20:00 18 3 32 270° W
Mi, 20.06. 14:00 14 3 32 230° SW
Mi, 20.06. 8:00 7 2 18 190° S
Mi, 20.06. 2:00 14 3 22 310° NW
Di, 19.06. 20:00 13 3 31 230° SW
Ortszeit Stärke Spitze Richtung
km/h Bft. km/h Grad Sektor
Do, 21.06. 19:30 35 5 56 310° NW
Do, 21.06. 19:20 35 5 - 310° NW
Do, 21.06. 19:10 35 5 - 300° NW
Do, 21.06. 19:00 35 5 56 310° NW
Do, 21.06. 18:50 35 5 - 310° NW
Do, 21.06. 18:40 37 5 - 310° NW
Do, 21.06. 18:30 40 6 54 320° NW
Do, 21.06. 18:00 41 6 63 320° NW
Do, 21.06. 17:30 32 5 65 290° W
Do, 21.06. 17:00 35 5 65 300° NW
Do, 21.06. 16:30 20 4 56 300° NW
Ortszeit Untergrenze Bedeckung Gattung
total tief tief mittel hoch
Do, 21.06. 14:00 780 m 4/8 3/8 - - -
Do, 21.06. 8:00 90 m 8/8 7/8 - - -
Do, 21.06. 2:00 1170 m 2/8 2/8 - - -
Mi, 20.06. 20:00 - 0/8 0/8 - - -
Mi, 20.06. 14:00 900 m 1/8 - - - -
Mi, 20.06. 8:00 90 m 8/8 8/8 - - -
Mi, 20.06. 2:00 - 0/8 0/8 - - -
Di, 19.06. 20:00 120 m 7/8 7/8 - - -
Ortszeit Bedeckungsgrad in Achtel und Wolkenuntergrenze
Do, 21.06. 19:30 2(1080m) 6(1470m)
Do, 21.06. 19:20 2(1080m) 6(1470m)
Do, 21.06. 19:10 2(1050m) 5(1500m)
Do, 21.06. 19:00 5(1500m) 3(1500m)
Do, 21.06. 18:50 5(1500m)
Do, 21.06. 18:40 1(1170m) 4(1500m)
Do, 21.06. 18:30 3(1170m) 4(1440m)
Do, 21.06. 18:00 6(1200m) 7(1440m)
Do, 21.06. 17:30 6(1350m)
Do, 21.06. 17:00 1(1230m) 4(1440m)
Do, 21.06. 16:30 6(1200m) 7(1470m)
Ortszeit Stationsdruck (hPa) Tendenz (hPa in 3 Std.)
Do, 21.06. 14:00 918 + 1,2
Do, 21.06. 8:00 917 - 1,3
Do, 21.06. 2:00 920 - 1,6
Mi, 20.06. 20:00 922 - 1,2
Mi, 20.06. 14:00 924 - 0,9
Mi, 20.06. 8:00 925 - 0,4
Mi, 20.06. 2:00 926 - 0,2
Di, 19.06. 20:00 926 0,0
Ortszeit Stationsdruck (hPa) Tendenz (hPa in 3 Std.)
Do, 21.06. 19:30 921 + 1,4
Do, 21.06. 19:20 921 keine Meldung
Do, 21.06. 19:10 921 keine Meldung
Do, 21.06. 19:00 921 + 1,5
Do, 21.06. 18:50 921 keine Meldung
Do, 21.06. 18:40 921 keine Meldung
Do, 21.06. 18:30 921 + 1,5
Do, 21.06. 18:00 920 + 1,5
Do, 21.06. 17:30 920 + 1,7
Do, 21.06. 17:00 920 + 1,6
Do, 21.06. 16:30 920 + 1,5
Ortszeit Schneehöhe (cm)
Do, 21.06. 14:00 -
Do, 21.06. 8:00 -
Do, 21.06. 2:00 -
Mi, 20.06. 20:00 -
Mi, 20.06. 14:00 -
Mi, 20.06. 8:00 -
Mi, 20.06. 2:00 -
Di, 19.06. 20:00 -
Ortszeit Schneehöhe (cm)
Do, 21.06. 19:30 -
Do, 21.06. 19:20 -
Do, 21.06. 19:10 -
Do, 21.06. 19:00 -
Do, 21.06. 18:50 -
Do, 21.06. 18:40 -
Do, 21.06. 18:30 -
Do, 21.06. 18:00 -
Do, 21.06. 17:30 -
Do, 21.06. 17:00 -
Do, 21.06. 16:30 -
Link zu dieser Seite / Seite empfehlen

Das Wetter in ...